Time;durP1;ratioP1;P1;durP2;ratioP2;P2;SDS_P1;SDS_P2;PMS_P1;PMS_P2;Temp;Humidity;BMP_temperature;BMP_pressure;BME280_temperature;BME280_humidity;BME280_pressure;Samples;Min_cycle;Max_cycle;Signal;HPM_P1;HPM_P2
2022/08/13 00:01:20;;;;;;;2.93;2.57;;;32.30;33.00;;;;;;5161715;27;20433;-80
2022/08/13 00:03:52;;;;;;;2.70;2.60;;;32.30;33.20;;;;;;5161151;27;20468;-80
2022/08/13 00:07:00;;;;;;;2.70;2.60;;;32.20;33.10;;;;;;5160828;27;20442;-80
2022/08/13 00:09:28;;;;;;;2.40;2.30;;;32.20;33.10;;;;;;5160272;27;20525;-80
2022/08/13 00:15:11;;;;;;;2.70;2.60;;;32.10;33.30;;;;;;5160230;27;20462;-80
2022/08/13 00:17:41;;;;;;;2.53;2.43;;;32.00;33.20;;;;;;5160957;27;20418;-80
2022/08/13 00:20:30;;;;;;;8.43;3.03;;;32.00;33.30;;;;;;5171111;27;20479;-80
2022/08/13 00:23:01;;;;;;;2.50;2.40;;;32.00;33.20;;;;;;5164435;27;20528;-80
2022/08/13 00:25:49;;;;;;;2.70;2.60;;;32.00;33.30;;;;;;5162594;27;20446;-80
2022/08/13 00:28:19;;;;;;;2.50;2.40;;;31.90;33.30;;;;;;5162170;27;20466;-80
2022/08/13 00:30:47;;;;;;;2.40;2.30;;;31.90;33.40;;;;;;5161577;27;20442;-80
2022/08/13 00:33:17;;;;;;;2.80;2.50;;;31.90;33.30;;;;;;5161087;27;20514;-80
2022/08/13 00:35:47;;;;;;;2.30;2.20;;;31.90;33.40;;;;;;5161401;27;20442;-79
2022/08/13 00:38:22;;;;;;;2.30;2.20;;;31.80;33.40;;;;;;5162246;27;20471;-80
2022/08/13 00:41:04;;;;;;;2.70;2.60;;;31.80;33.40;;;;;;5162618;27;20472;-80
2022/08/13 00:43:33;;;;;;;2.73;2.63;;;31.80;33.40;;;;;;5161648;27;20541;-80
2022/08/13 00:46:02;;;;;;;2.30;2.20;;;31.70;33.40;;;;;;5162053;27;20445;-80
2022/08/13 00:48:43;;;;;;;2.70;2.60;;;31.70;33.40;;;;;;5160694;27;20554;-80
2022/08/13 00:51:19;;;;;;;2.23;2.13;;;31.60;33.40;;;;;;5161576;27;20522;-79
2022/08/13 00:54:10;;;;;;;2.60;2.50;;;31.60;33.40;;;;;;5160890;27;20509;-81
2022/08/13 00:56:38;;;;;;;2.70;2.60;;;31.60;33.50;;;;;;5161807;27;20440;-80
2022/08/13 00:59:12;;;;;;;2.67;2.57;;;31.60;33.60;;;;;;5161307;27;20441;-80
2022/08/13 01:01:40;;;;;;;2.40;2.30;;;31.50;33.50;;;;;;5161705;27;20434;-80
2022/08/13 01:04:19;;;;;;;2.20;2.10;;;31.50;33.60;;;;;;5161044;27;20451;-80
2022/08/13 01:06:52;;;;;;;2.40;2.30;;;31.40;33.50;;;;;;5161108;27;20460;-80
2022/08/13 01:09:21;;;;;;;2.37;2.20;;;31.40;33.60;;;;;;5159739;27;20464;-80
2022/08/13 01:12:09;;;;;;;2.70;2.60;;;31.40;33.50;;;;;;5159545;27;20451;-80
2022/08/13 01:14:44;;;;;;;2.40;2.30;;;31.30;33.50;;;;;;5160275;27;20484;-80
2022/08/13 01:17:14;;;;;;;2.10;2.00;;;31.30;33.50;;;;;;5160778;27;20466;-80
2022/08/13 01:19:44;;;;;;;2.60;2.50;;;31.30;33.60;;;;;;5160391;27;20460;-80
2022/08/13 01:22:22;;;;;;;2.90;2.70;;;31.30;33.60;;;;;;5162154;27;20473;-79
2022/08/13 01:25:05;;;;;;;2.57;2.47;;;31.20;33.60;;;;;;5172751;27;20473;-79
2022/08/13 01:27:39;;;;;;;2.30;2.20;;;31.20;33.60;;;;;;5169533;27;20449;-80
2022/08/13 01:30:11;;;;;;;2.03;1.93;;;31.20;33.60;;;;;;5160493;27;20549;-79
2022/08/13 01:32:42;;;;;;;2.00;1.90;;;31.10;33.60;;;;;;5159969;27;20454;-80
2022/08/13 01:35:26;;;;;;;2.53;2.43;;;31.10;33.60;;;;;;5160046;27;20469;-80
2022/08/13 01:37:57;;;;;;;2.50;2.37;;;31.10;33.60;;;;;;5159876;27;20498;-80
2022/08/13 01:40:34;;;;;;;2.63;2.43;;;31.00;33.70;;;;;;5159607;27;20442;-80
2022/08/13 01:43:02;;;;;;;2.40;2.30;;;31.00;33.70;;;;;;5160161;27;20495;-80
2022/08/13 01:45:51;;;;;;;2.20;2.10;;;31.00;33.70;;;;;;5160060;27;20422;-80
2022/08/13 01:51:28;;;;;;;2.20;2.10;;;30.90;33.70;;;;;;5159639;27;20421;-81
2022/08/13 01:54:12;;;;;;;2.43;2.30;;;30.90;33.70;;;;;;5160139;27;20485;-82
2022/08/13 01:57:06;;;;;;;2.33;2.23;;;30.80;33.80;;;;;;5159871;27;20490;-82
2022/08/13 01:59:35;;;;;;;2.50;2.40;;;30.70;33.80;;;;;;5159485;27;20461;-82
2022/08/13 02:02:27;;;;;;;2.30;2.20;;;30.80;33.80;;;;;;5159616;27;20422;-82
2022/08/13 02:05:10;;;;;;;2.53;2.33;;;30.70;33.80;;;;;;5159627;27;20489;-81
2022/08/13 02:07:58;;;;;;;2.10;2.10;;;30.70;33.90;;;;;;5159975;27;20533;-80
2022/08/13 02:10:31;;;;;;;2.57;2.47;;;30.70;33.80;;;;;;5159132;27;20481;-81
2022/08/13 02:13:00;;;;;;;2.80;2.60;;;30.60;33.80;;;;;;5159450;27;20420;-81
2022/08/13 02:15:32;;;;;;;2.80;2.60;;;30.60;33.90;;;;;;5158871;27;20465;-81
2022/08/13 02:18:14;;;;;;;2.27;2.17;;;30.60;33.80;;;;;;5159420;27;20441;-82
2022/08/13 02:20:45;;;;;;;2.57;2.47;;;30.50;33.80;;;;;;5159206;27;20446;-82
2022/08/13 02:23:19;;;;;;;2.17;2.07;;;30.50;33.80;;;;;;5158598;27;20440;-82
2022/08/13 02:26:09;;;;;;;2.43;2.33;;;30.50;33.90;;;;;;5159065;27;20441;-82
2022/08/13 02:28:40;;;;;;;2.27;2.17;;;30.40;33.90;;;;;;5158548;27;20472;-82
2022/08/13 02:31:12;;;;;;;2.80;2.63;;;30.40;33.90;;;;;;5161254;27;20437;-81
2022/08/13 02:34:01;;;;;;;3.00;2.80;;;30.40;33.90;;;;;;5163040;27;20458;-82
2022/08/13 02:36:32;;;;;;;2.63;2.50;;;30.30;33.90;;;;;;5162929;27;20442;-82
2022/08/13 02:39:06;;;;;;;2.97;2.87;;;30.30;34.00;;;;;;5162742;27;20440;-82
2022/08/13 02:41:42;;;;;;;2.47;2.37;;;30.30;34.00;;;;;;5162521;27;20424;-81
2022/08/13 02:44:25;;;;;;;2.97;2.77;;;30.20;34.00;;;;;;5162121;27;20550;-82
2022/08/13 02:47:04;;;;;;;2.67;2.47;;;30.30;34.00;;;;;;5161722;27;20473;-82
2022/08/13 02:49:33;;;;;;;3.10;2.90;;;30.20;34.00;;;;;;5162127;27;20493;-80
2022/08/13 02:52:14;;;;;;;2.47;2.37;;;30.10;34.00;;;;;;5163091;27;20448;-83
2022/08/13 02:54:46;;;;;;;2.40;2.30;;;30.10;34.00;;;;;;5168985;27;20489;-83
2022/08/13 02:57:23;;;;;;;2.80;2.70;;;30.10;34.00;;;;;;5168027;27;20440;-82
2022/08/13 02:59:54;;;;;;;2.87;2.70;;;30.10;34.30;;;;;;5168760;27;20420;-83
2022/08/13 03:02:37;;;;;;;3.27;2.63;;;30.00;34.10;;;;;;5168749;27;20524;-83
2022/08/13 03:05:08;;;;;;;2.70;2.60;;;30.00;34.10;;;;;;5167256;27;20440;-83
2022/08/13 03:07:40;;;;;;;2.70;2.60;;;30.00;34.10;;;;;;5163656;27;20412;-83
2022/08/13 03:10:19;;;;;;;2.40;2.30;;;29.90;34.10;;;;;;5162693;27;20440;-81
2022/08/13 03:13:16;;;;;;;2.47;2.37;;;29.90;34.10;;;;;;5162960;27;21007;-83
2022/08/13 03:15:51;;;;;;;2.30;2.20;;;29.90;34.10;;;;;;5163112;27;20420;-83
2022/08/13 03:18:29;;;;;;;2.73;2.63;;;29.90;34.10;;;;;;5162861;27;20463;-82
2022/08/13 03:21:18;;;;;;;2.80;2.60;;;29.90;34.10;;;;;;5162558;27;20510;-81
2022/08/13 03:24:07;;;;;;;2.83;2.63;;;29.80;34.00;;;;;;5162423;27;20421;-82
2022/08/13 03:26:36;;;;;;;3.13;2.93;;;29.80;34.10;;;;;;5162594;27;20495;-83
2022/08/13 03:29:06;;;;;;;2.67;2.53;;;29.70;34.10;;;;;;5161517;27;20446;-83
2022/08/13 03:31:35;;;;;;;2.30;2.20;;;29.70;34.10;;;;;;5162238;27;20420;-83
2022/08/13 03:34:22;;;;;;;3.00;2.80;;;29.60;34.10;;;;;;5161627;27;20452;-82
2022/08/13 03:36:51;;;;;;;2.60;2.50;;;29.60;34.20;;;;;;5164492;27;20424;-83
2022/08/13 03:39:19;;;;;;;2.63;2.53;;;29.60;34.20;;;;;;5164773;27;20523;-82
2022/08/13 03:41:50;;;;;;;3.20;3.00;;;29.60;34.30;;;;;;5158121;27;20936;-82
2022/08/13 03:44:20;;;;;;;2.77;2.67;;;29.50;34.20;;;;;;5156003;27;20463;-82
2022/08/13 03:46:56;;;;;;;2.63;2.53;;;29.50;34.20;;;;;;5156041;27;20500;-83
2022/08/13 03:49:26;;;;;;;2.93;2.73;;;29.50;34.20;;;;;;5156015;27;20471;-81
2022/08/13 03:51:56;;;;;;;2.83;2.63;;;29.50;34.20;;;;;;5156768;27;20420;-82
2022/08/13 03:54:26;;;;;;;2.97;2.60;;;29.40;34.20;;;;;;5153194;27;20447;-83
2022/08/13 03:56:55;;;;;;;2.70;2.60;;;29.40;34.20;;;;;;5094885;27;20504;-82
2022/08/13 03:59:31;;;;;;;2.97;2.70;;;29.40;34.30;;;;;;5094781;27;20499;-82
2022/08/13 04:02:15;;;;;;;3.07;2.87;;;29.40;34.30;;;;;;5134826;27;20467;-83
2022/08/13 04:04:47;;;;;;;3.03;2.83;;;29.40;34.30;;;;;;5156610;27;20466;-82
2022/08/13 04:07:16;;;;;;;2.90;2.47;;;29.30;34.20;;;;;;5156820;27;20442;-82
2022/08/13 04:09:45;;;;;;;2.57;2.47;;;29.30;34.30;;;;;;5156055;27;20508;-82
2022/08/13 04:12:22;;;;;;;2.90;2.70;;;29.30;34.40;;;;;;5156233;27;20822;-82
2022/08/13 04:14:52;;;;;;;2.90;2.77;;;29.30;34.40;;;;;;5158058;27;20433;-82
2022/08/13 04:17:29;;;;;;;2.87;2.67;;;29.20;34.30;;;;;;5157492;27;20498;-82
2022/08/13 04:20:02;;;;;;;3.60;3.30;;;29.20;34.30;;;;;;5157616;27;20851;-82
2022/08/13 04:22:33;;;;;;;2.57;2.40;;;29.20;34.20;;;;;;5157095;27;20455;-82
2022/08/13 04:25:05;;;;;;;3.27;3.07;;;29.20;34.40;;;;;;5158587;27;20529;-82
2022/08/13 04:27:54;;;;;;;2.70;2.60;;;29.20;34.30;;;;;;5161657;27;20437;-82
2022/08/13 04:30:40;;;;;;;3.07;2.87;;;29.10;34.30;;;;;;5161721;27;20436;-82
2022/08/13 04:33:11;;;;;;;2.53;2.43;;;29.10;34.30;;;;;;5161017;27;20428;-82
2022/08/13 04:35:50;;;;;;;3.57;3.27;;;29.10;34.20;;;;;;5160203;27;20416;-82
2022/08/13 04:38:25;;;;;;;2.33;2.23;;;29.10;34.30;;;;;;5161226;27;20416;-82
2022/08/13 04:40:53;;;;;;;2.50;2.40;;;29.10;34.30;;;;;;5160913;27;20467;-82
2022/08/13 04:43:25;;;;;;;2.63;2.47;;;29.10;34.30;;;;;;5160184;27;20450;-82
2022/08/13 04:45:59;;;;;;;3.43;2.40;;;29.10;34.30;;;;;;5161062;27;20447;-82
2022/08/13 04:48:31;;;;;;;2.37;2.27;;;29.10;34.30;;;;;;5161144;27;20482;-82
2022/08/13 04:51:00;;;;;;;3.07;2.77;;;29.10;34.30;;;;;;5159758;27;20535;-82
2022/08/13 04:53:30;;;;;;;2.63;2.53;;;29.00;34.20;;;;;;5159877;27;20412;-82
2022/08/13 04:55:59;;;;;;;2.67;2.57;;;29.00;34.30;;;;;;5160746;27;20449;-82
2022/08/13 04:58:40;;;;;;;2.87;2.77;;;29.00;34.30;;;;;;5159863;27;20416;-82
2022/08/13 05:01:11;;;;;;;3.03;2.93;;;29.00;34.30;;;;;;5160076;27;20416;-82
2022/08/13 05:03:59;;;;;;;2.60;2.40;;;29.00;34.30;;;;;;5160772;27;20477;-81
2022/08/13 05:06:49;;;;;;;2.73;2.63;;;29.00;34.40;;;;;;5159904;27;20437;-82
2022/08/13 05:09:18;;;;;;;2.77;2.57;;;28.90;34.20;;;;;;5160050;27;20475;-82
2022/08/13 05:11:50;;;;;;;2.70;2.60;;;28.90;34.20;;;;;;5160450;27;20444;-82
2022/08/13 05:14:32;;;;;;;2.60;2.40;;;28.90;34.30;;;;;;5160643;27;20485;-82
2022/08/13 05:17:03;;;;;;;2.60;2.40;;;28.90;34.30;;;;;;5160788;27;20442;-82
2022/08/13 05:19:32;;;;;;;2.93;2.73;;;28.90;34.30;;;;;;5160717;27;20487;-81
2022/08/13 05:22:05;;;;;;;2.80;2.60;;;28.90;34.30;;;;;;5160160;27;20440;-82
2022/08/13 05:24:52;;;;;;;3.67;2.83;;;28.90;34.20;;;;;;5160216;27;20437;-81
2022/08/13 05:27:44;;;;;;;2.70;2.50;;;28.90;34.30;;;;;;5160827;27;20489;-82
2022/08/13 05:30:14;;;;;;;2.67;2.50;;;28.90;34.20;;;;;;5159730;27;20450;-82
2022/08/13 05:33:00;;;;;;;2.83;2.73;;;28.80;34.20;;;;;;5160722;27;20457;-82
2022/08/13 05:35:41;;;;;;;3.00;2.70;;;28.90;34.40;;;;;;5160604;27;20473;-82
2022/08/13 05:38:30;;;;;;;2.43;2.33;;;28.80;34.40;;;;;;5160564;27;20508;-82
2022/08/13 05:41:00;;;;;;;2.27;2.17;;;28.70;34.40;;;;;;5160695;27;20544;-82
2022/08/13 05:43:29;;;;;;;2.83;2.60;;;28.70;34.40;;;;;;5160016;27;20476;-81
2022/08/13 05:46:02;;;;;;;2.53;2.43;;;28.70;34.30;;;;;;5159700;27;20435;-82
2022/08/13 05:48:36;;;;;;;2.60;2.50;;;28.70;34.40;;;;;;5159797;27;20444;-82
2022/08/13 05:51:08;;;;;;;3.20;2.73;;;28.70;34.20;;;;;;5160209;27;20547;-82
2022/08/13 05:53:37;;;;;;;2.27;2.17;;;28.70;34.30;;;;;;5160329;27;20568;-82
2022/08/13 05:56:19;;;;;;;2.50;2.30;;;28.70;34.30;;;;;;5160389;27;20413;-82
2022/08/13 05:58:49;;;;;;;2.53;2.43;;;28.70;34.40;;;;;;5159687;27;20491;-81
2022/08/13 06:04:10;;;;;;;2.73;2.63;;;28.70;34.20;;;;;;5162244;27;20440;-82
2022/08/13 06:06:58;;;;;;;4.57;2.20;;;28.70;34.30;;;;;;5164691;27;20513;-82
2022/08/13 06:09:26;;;;;;;2.40;2.20;;;28.80;34.30;;;;;;5164035;27;20464;-83
2022/08/13 06:11:59;;;;;;;3.00;2.70;;;28.80;34.30;;;;;;5163843;27;20525;-83
2022/08/13 06:14:49;;;;;;;3.13;2.80;;;28.80;34.20;;;;;;5163785;27;20455;-82
2022/08/13 06:17:21;;;;;;;2.90;2.50;;;28.80;34.40;;;;;;5163832;27;20442;-82
2022/08/13 06:19:59;;;;;;;2.50;2.40;;;28.90;34.20;;;;;;5164447;27;20423;-82
2022/08/13 06:22:36;;;;;;;2.90;2.70;;;29.00;34.10;;;;;;5164318;27;20416;-82
2022/08/13 06:25:06;;;;;;;2.37;2.23;;;29.00;34.00;;;;;;5164545;27;20461;-82
2022/08/13 06:27:44;;;;;;;3.60;2.43;;;29.10;33.90;;;;;;5164613;27;20439;-82
2022/08/13 06:30:25;;;;;;;2.37;2.17;;;29.20;33.80;;;;;;5163566;27;20434;-82
2022/08/13 06:33:01;;;;;;;2.37;2.27;;;29.20;33.80;;;;;;5163351;27;20475;-82
2022/08/13 06:35:54;;;;;;;2.50;2.40;;;29.30;33.70;;;;;;5162980;27;20400;-81
2022/08/13 06:38:27;;;;;;;2.57;2.47;;;29.40;33.60;;;;;;5163838;27;20433;-81
2022/08/13 06:40:59;;;;;;;2.20;2.10;;;29.50;33.40;;;;;;5162680;27;20508;-81
2022/08/13 06:43:29;;;;;;;3.03;2.67;;;29.50;33.30;;;;;;5163046;27;20416;-81
2022/08/13 06:46:16;;;;;;;2.53;2.43;;;29.50;33.40;;;;;;5163413;27;20419;-81
2022/08/13 06:48:55;;;;;;;2.30;2.20;;;29.60;33.30;;;;;;5163272;27;20442;-81
2022/08/13 06:51:25;;;;;;;2.33;2.23;;;29.70;33.40;;;;;;5162504;27;20440;-81
2022/08/13 06:53:54;;;;;;;2.40;2.30;;;29.70;33.30;;;;;;5163542;27;20436;-81
2022/08/13 06:56:42;;;;;;;2.63;2.53;;;29.80;33.30;;;;;;5166437;27;20430;-81
2022/08/13 06:59:26;;;;;;;2.07;1.97;;;29.90;33.40;;;;;;5162653;27;20470;-81
2022/08/13 07:02:16;;;;;;;2.20;2.10;;;30.00;33.30;;;;;;5163403;27;20475;-80
2022/08/13 07:04:48;;;;;;;2.20;2.10;;;30.10;33.10;;;;;;5163732;27;20465;-81
2022/08/13 07:07:22;;;;;;;2.37;2.27;;;30.20;32.90;;;;;;5163291;27;20457;-81
2022/08/13 07:09:54;;;;;;;2.10;2.00;;;30.40;33.40;;;;;;5163542;27;20417;-81
2022/08/13 07:12:24;;;;;;;2.70;2.40;;;30.50;32.70;;;;;;5162930;27;20477;-81
2022/08/13 07:14:53;;;;;;;2.23;2.13;;;30.70;32.20;;;;;;5163615;27;20474;-81
2022/08/13 07:17:28;;;;;;;2.00;1.90;;;30.90;32.20;;;;;;5164647;27;20441;-81
2022/08/13 07:20:03;;;;;;;2.40;2.30;;;31.00;32.10;;;;;;5164038;27;20479;-81
2022/08/13 07:22:36;;;;;;;2.20;2.10;;;31.20;31.80;;;;;;5164206;27;20462;-81
2022/08/13 07:25:25;;;;;;;2.03;1.93;;;31.40;31.50;;;;;;5164215;27;20446;-81
2022/08/13 07:28:15;;;;;;;2.20;2.00;;;31.50;31.40;;;;;;5164513;27;20401;-81
2022/08/13 07:31:05;;;;;;;2.03;1.93;;;31.70;31.30;;;;;;5160938;27;20913;-81
2022/08/13 07:33:42;;;;;;;1.80;1.80;;;31.80;31.20;;;;;;5161800;27;20503;-81
2022/08/13 07:36:27;;;;;;;2.40;2.30;;;32.00;31.20;;;;;;5157936;27;20469;-81
2022/08/13 07:38:57;;;;;;;2.00;1.90;;;32.20;31.10;;;;;;5156857;27;20420;-80
2022/08/13 07:41:27;;;;;;;2.03;1.90;;;32.30;31.00;;;;;;5157112;27;20461;-81
2022/08/13 07:43:59;;;;;;;1.83;1.83;;;32.50;31.00;;;;;;5156920;27;20458;-81
2022/08/13 07:46:35;;;;;;;2.50;2.40;;;32.60;30.90;;;;;;5157051;27;20462;-81
2022/08/13 07:49:09;;;;;;;2.03;1.93;;;32.70;30.90;;;;;;5156273;27;20437;-80
2022/08/13 07:51:38;;;;;;;2.40;2.30;;;32.90;30.90;;;;;;5156247;27;20469;-82
2022/08/13 07:54:11;;;;;;;1.80;1.70;;;33.00;30.80;;;;;;5156069;27;20469;-82
2022/08/13 07:56:47;;;;;;;2.10;2.00;;;33.20;30.70;;;;;;5155974;27;20448;-82
2022/08/13 07:59:22;;;;;;;1.70;1.70;;;33.30;30.70;;;;;;5155656;27;20410;-83
2022/08/13 08:02:04;;;;;;;2.20;2.10;;;33.40;30.50;;;;;;5162259;27;20438;-80
2022/08/13 08:04:50;;;;;;;2.10;1.90;;;33.60;30.40;;;;;;5158377;27;20540;-81
2022/08/13 08:07:22;;;;;;;1.77;1.67;;;33.80;30.40;;;;;;5156252;27;20453;-82
2022/08/13 08:09:54;;;;;;;1.87;1.77;;;34.00;30.30;;;;;;5155889;27;20452;-82
2022/08/13 08:12:33;;;;;;;1.93;1.93;;;34.10;30.30;;;;;;5155587;27;20462;-83
2022/08/13 08:15:14;;;;;;;2.17;2.07;;;34.30;30.30;;;;;;5155824;27;20473;-84
2022/08/13 08:18:03;;;;;;;1.80;1.80;;;34.50;30.20;;;;;;5156353;27;20407;-82
2022/08/13 08:20:46;;;;;;;1.70;1.70;;;34.60;30.10;;;;;;5155662;27;20434;-78
2022/08/13 08:23:35;;;;;;;1.57;1.47;;;34.80;30.00;;;;;;5155680;27;20505;-82
2022/08/13 08:26:26;;;;;;;2.10;2.00;;;35.00;30.10;;;;;;5155707;27;20440;-83
2022/08/13 08:28:55;;;;;;;1.60;1.60;;;35.10;30.00;;;;;;5155449;27;20442;-82
2022/08/13 08:31:23;;;;;;;2.20;2.00;;;35.20;30.00;;;;;;5157048;27;20446;-82
2022/08/13 08:34:11;;;;;;;1.90;1.80;;;35.40;30.00;;;;;;5156867;27;20442;-80
2022/08/13 08:36:42;;;;;;;1.97;1.90;;;35.50;30.00;;;;;;5156810;27;20517;-82
2022/08/13 08:44:58;;;;;;;1.57;1.47;;;36.00;30.00;;;;;;5154780;27;20454;-83
2022/08/13 08:47:29;;;;;;;1.90;1.80;;;36.10;30.00;;;;;;5155790;27;20459;-81
2022/08/13 08:50:17;;;;;;;1.73;1.73;;;36.20;30.00;;;;;;5155412;27;20445;-82
2022/08/13 08:56:01;;;;;;;1.43;1.37;;;36.60;29.90;;;;;;5159238;27;20497;-83
2022/08/13 08:58:36;;;;;;;2.03;1.93;;;36.70;29.90;;;;;;5156668;27;20462;-79
2022/08/13 09:01:10;;;;;;;1.60;1.60;;;36.90;29.80;;;;;;5160554;27;20493;-83
2022/08/13 09:03:46;;;;;;;1.77;1.77;;;37.10;29.80;;;;;;5179412;27;20489;-84
2022/08/13 09:06:26;;;;;;;1.90;1.80;;;37.20;29.70;;;;;;5178946;27;20428;-83
2022/08/13 09:09:14;;;;;;;1.43;1.43;;;37.40;29.70;;;;;;5179792;27;20418;-84
2022/08/13 09:11:46;;;;;;;1.70;1.60;;;37.50;29.70;;;;;;5179456;27;20437;-84
2022/08/13 09:14:26;;;;;;;1.47;1.47;;;37.60;29.70;;;;;;5169866;27;20494;-84
2022/08/13 09:16:55;;;;;;;1.93;1.83;;;37.80;29.70;;;;;;5164470;27;20513;-83
2022/08/13 09:19:24;;;;;;;1.60;1.60;;;37.90;29.60;;;;;;5163310;27;20437;-84
2022/08/13 09:22:15;;;;;;;1.60;1.60;;;38.10;29.50;;;;;;5162487;27;20461;-84
2022/08/13 09:24:48;;;;;;;1.50;1.50;;;38.40;29.40;;;;;;5161484;27;20455;-84
2022/08/13 09:27:17;;;;;;;1.50;1.50;;;38.50;29.40;;;;;;5161067;27;20441;-84
2022/08/13 09:29:50;;;;;;;1.33;1.30;;;38.70;29.20;;;;;;5161310;27;20430;-84
2022/08/13 09:32:29;;;;;;;1.50;1.40;;;38.90;29.20;;;;;;5163031;27;20545;-83
2022/08/13 09:35:02;;;;;;;1.80;1.43;;;39.00;29.10;;;;;;5161672;27;20484;-83
2022/08/13 09:37:31;;;;;;;1.50;1.40;;;39.20;29.10;;;;;;5162781;27;20453;-84
2022/08/13 09:40:19;;;;;;;1.30;1.30;;;39.40;29.00;;;;;;5165325;27;20430;-82
2022/08/13 09:43:08;;;;;;;1.50;1.50;;;39.50;28.90;;;;;;5167208;27;20423;-83
2022/08/13 09:45:39;;;;;;;1.47;1.20;;;39.70;28.90;;;;;;5169019;27;20437;-82
2022/08/13 09:48:15;;;;;;;1.83;1.73;;;39.90;28.70;;;;;;5167865;27;20455;-82
2022/08/13 09:51:03;;;;;;;1.60;1.60;;;40.10;28.70;;;;;;5167146;27;20491;-84
2022/08/13 09:53:46;;;;;;;1.63;1.63;;;40.20;28.60;;;;;;5168471;27;20480;-84
2022/08/13 09:56:18;;;;;;;1.50;1.40;;;40.40;28.60;;;;;;5168958;27;20532;-84
2022/08/13 09:58:50;;;;;;;1.33;1.33;;;40.60;28.50;;;;;;5168788;27;20438;-83
2022/08/13 10:01:24;;;;;;;1.10;1.10;;;40.80;28.50;;;;;;5168134;27;20462;-83
2022/08/13 10:04:18;;;;;;;1.40;1.40;;;41.00;28.40;;;;;;5168417;27;20498;-82
2022/08/13 10:06:46;;;;;;;1.23;1.23;;;41.20;28.30;;;;;;5168845;27;20441;-83
2022/08/13 10:09:26;;;;;;;1.10;1.10;;;41.30;28.20;;;;;;5169056;27;20445;-83
2022/08/13 10:11:59;;;;;;;1.43;1.33;;;41.60;28.00;;;;;;5168240;27;20441;-82
2022/08/13 10:14:47;;;;;;;1.60;1.50;;;41.80;27.90;;;;;;5168221;27;20442;-83
2022/08/13 10:17:26;;;;;;;1.50;1.40;;;41.90;27.80;;;;;;5162354;27;20435;-81
2022/08/13 10:20:15;;;;;;;2.40;1.47;;;42.20;27.80;;;;;;5161190;27;20418;-83
2022/08/13 10:22:44;;;;;;;1.23;1.23;;;42.30;27.70;;;;;;5160599;27;20441;-83
2022/08/13 10:25:13;;;;;;;1.33;1.33;;;42.50;27.60;;;;;;5160975;27;20544;-81
2022/08/13 10:27:45;;;;;;;1.30;1.30;;;42.70;27.60;;;;;;5161296;27;20439;-82
2022/08/13 10:30:17;;;;;;;1.40;1.40;;;42.90;27.40;;;;;;5160997;27;20486;-83
2022/08/13 10:33:08;;;;;;;1.63;1.33;;;43.10;27.40;;;;;;5161253;27;20500;-81
2022/08/13 10:35:37;;;;;;;1.17;1.17;;;43.30;27.20;;;;;;5161310;27;20437;-83
2022/08/13 10:38:17;;;;;;;1.10;1.10;;;43.60;27.10;;;;;;5160600;27;21167;-82
2022/08/13 10:40:46;;;;;;;1.30;1.20;;;43.80;27.00;;;;;;5161610;27;20436;-82
2022/08/13 10:43:14;;;;;;;1.23;1.23;;;44.00;26.90;;;;;;5164700;27;20442;-83
2022/08/13 10:45:52;;;;;;;1.10;1.10;;;44.10;26.80;;;;;;5166342;27;20437;-83
2022/08/13 10:48:23;;;;;;;1.20;1.20;;;44.30;26.70;;;;;;5165052;27;20465;-83
2022/08/13 10:50:52;;;;;;;1.23;1.23;;;44.50;26.60;;;;;;5164898;27;20509;-83
2022/08/13 10:56:09;;;;;;;1.30;1.30;;;45.00;26.40;;;;;;5164573;27;20452;-84
2022/08/13 10:58:38;;;;;;;1.40;1.30;;;45.20;26.20;;;;;;5164536;27;20468;-82
2022/08/13 11:01:20;;;;;;;1.23;1.23;;;45.40;26.20;;;;;;5166054;27;20449;-83
2022/08/13 11:03:52;;;;;;;1.07;1.07;;;45.50;26.20;;;;;;5162533;27;20453;-82
2022/08/13 11:06:34;;;;;;;1.20;1.20;;;45.70;26.10;;;;;;5162619;27;20445;-81
2022/08/13 11:09:04;;;;;;;1.17;1.17;;;46.00;26.00;;;;;;5162338;27;20433;-82
2022/08/13 11:11:52;;;;;;;1.10;1.10;;;46.20;25.70;;;;;;5161863;27;20437;-83
2022/08/13 11:14:22;;;;;;;1.10;1.10;;;46.40;25.60;;;;;;5161578;27;20473;-82
2022/08/13 11:16:58;;;;;;;1.03;1.03;;;46.50;25.40;;;;;;5162878;27;20512;-83
2022/08/13 11:19:34;;;;;;;1.25;1.25;;;46.70;25.30;;;;;;5162218;27;20451;-82
2022/08/13 11:22:19;;;;;;;1.60;1.10;;;46.90;25.20;;;;;;5161643;27;20442;-83
2022/08/13 11:24:55;;;;;;;1.08;1.08;;;47.80;24.80;;;;;;5160697;27;20539;-83
2022/08/13 11:27:24;;;;;;;1.08;1.00;;;48.90;24.10;;;;;;5159817;27;20208;-82
2022/08/13 11:30:13;;;;;;;0.70;0.70;;;49.90;23.20;;;;;;5158265;27;20202;-83
2022/08/13 11:32:58;;;;;;;0.80;0.80;;;51.10;22.50;;;;;;5158735;27;20683;-82
2022/08/13 11:35:34;;;;;;;0.80;0.80;;;51.80;22.00;;;;;;5158099;27;20305;-83
2022/08/13 11:38:07;;;;;;;0.85;0.85;;;52.70;21.50;;;;;;5158542;27;20194;-82
2022/08/13 11:40:36;;;;;;;0.70;0.70;;;53.30;21.20;;;;;;5158739;27;20261;-83
2022/08/13 11:43:06;;;;;;;0.70;0.70;;;54.00;20.80;;;;;;5157834;27;20678;-83
2022/08/13 11:45:44;;;;;;;0.80;0.80;;;54.50;20.40;;;;;;5158158;27;20193;-83
2022/08/13 11:48:16;;;;;;;0.60;0.60;;;55.20;20.00;;;;;;5158066;27;20194;-81
2022/08/13 11:50:58;;;;;;;0.60;0.60;;;55.80;19.60;;;;;;5156449;27;20219;-81
2022/08/13 11:53:27;;;;;;;0.68;0.68;;;55.80;19.40;;;;;;5156540;27;20229;-81
2022/08/13 11:55:56;;;;;;;0.50;0.50;;;55.40;19.80;;;;;;5156197;27;20202;-81
2022/08/13 11:58:32;;;;;;;0.60;0.60;;;55.30;19.70;;;;;;5156107;27;20197;-80
2022/08/13 12:01:20;;;;;;;0.60;0.60;;;54.70;19.90;;;;;;5156107;27;20190;-80
2022/08/13 12:03:52;;;;;;;0.60;0.60;;;55.50;19.70;;;;;;5154395;27;20214;-80
2022/08/13 12:06:42;;;;;;;0.60;0.60;;;56.00;19.50;;;;;;5155980;27;20254;-81
2022/08/13 12:09:17;;;;;;;0.50;0.50;;;56.40;19.30;;;;;;5155579;27;20217;-82
2022/08/13 12:12:06;;;;;;;0.60;0.60;;;57.00;18.90;;;;;;5155512;27;20205;-83
2022/08/13 12:14:38;;;;;;;0.60;0.60;;;57.30;18.80;;;;;;5155298;27;20225;-82
2022/08/13 12:17:06;;;;;;;0.55;0.55;;;57.70;18.50;;;;;;5155527;27;20198;-80
2022/08/13 12:19:35;;;;;;;0.50;0.50;;;57.40;18.40;;;;;;5155070;27;20253;-81
2022/08/13 12:22:06;;;;;;;0.70;0.70;;;57.20;18.80;;;;;;5155967;27;20216;-83
2022/08/13 12:24:36;;;;;;;0.50;0.50;;;57.50;18.50;;;;;;5154981;27;20213;-81
2022/08/13 12:27:11;;;;;;;0.63;0.60;;;58.00;18.40;;;;;;5155343;27;20223;-82
2022/08/13 12:29:43;;;;;;;0.55;0.55;;;58.30;18.00;;;;;;5154947;27;20201;-82
2022/08/13 12:32:14;;;;;;;0.60;0.60;;;58.50;18.00;;;;;;5155218;27;20229;-82
2022/08/13 12:34:45;;;;;;;0.50;0.50;;;58.80;17.80;;;;;;5154905;27;20575;-82
2022/08/13 12:37:24;;;;;;;0.60;0.60;;;59.00;17.60;;;;;;5154884;27;20619;-82
2022/08/13 12:40:06;;;;;;;0.50;0.50;;;59.20;17.70;;;;;;5154959;27;20201;-82
2022/08/13 12:42:35;;;;;;;0.50;0.50;;;59.20;17.60;;;;;;5155255;27;20224;-80
2022/08/13 12:45:05;;;;;;;0.60;0.60;;;59.40;17.40;;;;;;5154652;27;20224;-82
2022/08/13 12:47:52;;;;;;;0.50;0.50;;;59.40;17.60;;;;;;5157999;27;20204;-82
2022/08/13 12:50:20;;;;;;;0.50;0.50;;;59.30;17.10;;;;;;5154672;27;20205;-81
2022/08/13 12:52:50;;;;;;;0.50;0.50;;;58.70;17.40;;;;;;5154685;27;20201;-81
2022/08/13 12:55:19;;;;;;;0.52;0.52;;;58.00;17.60;;;;;;5154615;27;20229;-81
2022/08/13 12:58:00;;;;;;;0.50;0.50;;;56.20;18.50;;;;;;5155360;27;20254;-81
2022/08/13 13:00:33;;;;;;;0.60;0.60;;;55.60;19.20;;;;;;5154882;27;20285;-80
2022/08/13 13:03:02;;;;;;;0.50;0.50;;;56.20;18.50;;;;;;5155003;27;20198;-81
2022/08/13 13:05:39;;;;;;;0.57;0.57;;;56.80;18.40;;;;;;5154281;27;20204;-81
2022/08/13 13:08:17;;;;;;;0.60;0.60;;;56.50;18.60;;;;;;5154508;27;20263;-82
2022/08/13 13:11:04;;;;;;;0.60;0.60;;;56.90;18.30;;;;;;5154832;27;20205;-81
2022/08/13 13:13:41;;;;;;;0.60;0.60;;;55.70;18.70;;;;;;5161260;27;20240;-81
2022/08/13 13:16:24;;;;;;;0.50;0.50;;;55.90;18.80;;;;;;5162700;27;20194;-81
2022/08/13 13:19:06;;;;;;;0.50;0.50;;;56.50;18.60;;;;;;5162421;27;20218;-80
2022/08/13 13:21:43;;;;;;;0.50;0.50;;;56.60;18.40;;;;;;5162072;27;20201;-81
2022/08/13 13:24:13;;;;;;;0.60;0.60;;;56.00;18.70;;;;;;5162295;27;20249;-82
2022/08/13 13:26:50;;;;;;;0.60;0.60;;;55.70;19.00;;;;;;5161133;27;20202;-81
2022/08/13 13:29:30;;;;;;;0.60;0.60;;;55.00;19.30;;;;;;5164954;27;20201;-80
2022/08/13 13:32:06;;;;;;;0.60;0.60;;;54.00;19.40;;;;;;5165273;27;20208;-79
2022/08/13 13:34:55;;;;;;;0.70;0.70;;;53.40;19.90;;;;;;5165578;27;20239;-81
2022/08/13 13:37:27;;;;;;;0.85;0.70;;;52.60;20.20;;;;;;5162533;27;20670;-80
2022/08/13 13:40:16;;;;;;;0.80;0.80;;;52.00;20.60;;;;;;5164498;27;20571;-81
2022/08/13 13:42:45;;;;;;;0.77;0.70;;;52.00;20.90;;;;;;5163064;27;20213;-81
2022/08/13 13:45:33;;;;;;;0.90;0.90;;;51.80;21.20;;;;;;5163717;27;20313;-80
2022/08/13 13:48:18;;;;;;;0.80;0.80;;;51.50;21.20;;;;;;5163910;27;20198;-80
2022/08/13 13:50:46;;;;;;;0.82;0.82;;;51.30;21.40;;;;;;5164267;27;20224;-81
2022/08/13 13:53:15;;;;;;;0.73;0.73;;;51.30;21.80;;;;;;5163210;27;20212;-81
2022/08/13 13:56:07;;;;;;;0.80;0.80;;;51.30;21.20;;;;;;5162631;27;20677;-80